Time;durP1;ratioP1;P1;durP2;ratioP2;P2;SDS_P1;SDS_P2;PMS_P1;PMS_P2;Temp;Humidity;BMP_temperature;BMP_pressure;BME280_temperature;BME280_humidity;BME280_pressure;Samples;Min_cycle;Max_cycle;Signal;HPM_P1;HPM_P2
2021/12/10 17:17:34;;;;;;;3.45;1.95;;;;;;;;;;5052778;28;20397;-70
2021/12/10 17:20:13;;;;;;;2.50;2.30;;;;;;;;;;5029796;28;20037;-70
2021/12/10 17:22:39;;;;;;;1.80;1.70;;;;;;;;;;5028367;28;20532;-71
2021/12/10 17:25:11;;;;;;;5.40;2.90;;;;;;;;;;5030016;28;20018;-70
2021/12/10 17:27:36;;;;;;;1.80;1.70;;;;;;;;;;5035643;28;20032;-70
2021/12/10 17:30:27;;;;;;;1.80;1.70;;;;;;;;;;5030194;28;20030;-70
2021/12/10 17:32:53;;;;;;;1.73;1.63;;;;;;;;;;5033363;28;20114;-70
2021/12/10 17:35:21;;;;;;;3.88;1.80;;;;;;;;;;5027980;28;20032;-70
2021/12/10 17:37:46;;;;;;;2.70;2.50;;;;;;;;;;5029323;28;20030;-69
2021/12/10 17:40:23;;;;;;;2.63;2.42;;;;;;;;;;5012969;28;20080;-69
2021/12/10 17:42:50;;;;;;;1.70;1.60;;;;;;;;;;5027800;28;20021;-69
2021/12/10 17:45:21;;;;;;;1.70;1.60;;;;;;;;;;5031967;28;20029;-70
2021/12/10 17:47:48;;;;;;;2.10;1.90;;;;;;;;;;5032410;28;20048;-69
2021/12/10 17:50:23;;;;;;;1.83;1.73;;;;;;;;;;5036071;28;20041;-69
2021/12/10 17:52:50;;;;;;;1.70;1.60;;;;;;;;;;5014016;28;20063;-70
2021/12/10 17:55:17;;;;;;;1.70;1.60;;;;;;;;;;5028751;28;20033;-70
2021/12/10 17:57:51;;;;;;;2.03;1.92;;;;;;;;;;5032139;28;20033;-70
2021/12/10 18:00:30;;;;;;;;;;;;;;;;;;5030383;28;20036;-69
2021/12/10 18:03:03;;;;;;;2.30;2.10;;;;;;;;;;5031550;28;19908;-69
2021/12/10 18:05:28;;;;;;;2.60;2.40;;;;;;;;;;5026460;28;20042;-69
2021/12/10 18:07:54;;;;;;;2.88;2.55;;;;;;;;;;5028048;28;20025;-69
2021/12/10 18:10:24;;;;;;;2.35;2.22;;;;;;;;;;5027577;28;20022;-69
2021/12/10 18:12:51;;;;;;;2.30;2.10;;;;;;;;;;5030392;28;20083;-70
2021/12/10 18:15:27;;;;;;;3.40;2.50;;;;;;;;;;5025655;28;20610;-69
2021/12/10 18:17:58;;;;;;;2.67;2.50;;;;;;;;;;5035701;28;20017;-68
2021/12/10 18:20:27;;;;;;;3.20;2.90;;;;;;;;;;5044914;28;20043;-68
2021/12/10 18:22:54;;;;;;;4.28;3.72;;;;;;;;;;5031914;28;20064;-70
2021/12/10 18:25:23;;;;;;;3.00;2.80;;;;;;;;;;5029569;28;20116;-68
2021/12/10 18:27:51;;;;;;;2.90;2.70;;;;;;;;;;5018753;28;20033;-70
2021/12/10 18:30:17;;;;;;;3.22;3.00;;;;;;;;;;5013122;28;20105;-70
2021/12/10 18:32:44;;;;;;;3.40;3.10;;;;;;;;;;5020151;28;20031;-70
2021/12/10 18:35:11;;;;;;;2.60;2.40;;;;;;;;;;5025537;28;20028;-70
2021/12/10 18:37:37;;;;;;;2.33;2.20;;;;;;;;;;5010359;28;20472;-70
2021/12/10 18:40:19;;;;;;;2.22;2.10;;;;;;;;;;5012203;28;20025;-70
2021/12/10 18:42:49;;;;;;;2.00;1.90;;;;;;;;;;5009848;28;20072;-70
2021/12/10 18:45:39;;;;;;;2.30;2.10;;;;;;;;;;5014655;28;20517;-70
2021/12/10 18:48:06;;;;;;;2.35;2.00;;;;;;;;;;5022103;28;20064;-71
2021/12/10 18:50:33;;;;;;;1.98;1.88;;;;;;;;;;5019542;28;20033;-71
2021/12/10 18:52:59;;;;;;;2.35;2.20;;;;;;;;;;5016896;28;20136;-72
2021/12/10 18:55:27;;;;;;;3.67;3.38;;;;;;;;;;5019314;28;20033;-72
2021/12/10 18:57:52;;;;;;;1.95;1.85;;;;;;;;;;5013089;28;20387;-72
2021/12/10 19:00:23;;;;;;;3.78;3.47;;;;;;;;;;5009318;28;20104;-72
2021/12/10 19:02:50;;;;;;;2.72;2.53;;;;;;;;;;5012039;28;20030;-72
2021/12/10 19:05:38;;;;;;;2.63;2.42;;;;;;;;;;5012779;28;20034;-72
2021/12/10 19:08:08;;;;;;;3.47;3.17;;;;;;;;;;5011375;28;20042;-72
2021/12/10 19:10:39;;;;;;;3.45;3.15;;;;;;;;;;5012974;28;20124;-71
2021/12/10 19:13:16;;;;;;;2.28;2.10;;;;;;;;;;5012981;28;20037;-71
2021/12/10 19:15:50;;;;;;;2.80;2.60;;;;;;;;;;5012044;28;20385;-71
2021/12/10 19:18:21;;;;;;;2.85;2.65;;;;;;;;;;5010470;28;20025;-70
2021/12/10 19:20:53;;;;;;;3.30;3.00;;;;;;;;;;5021720;28;20034;-70
2021/12/10 19:23:22;;;;;;;2.80;2.60;;;;;;;;;;5006997;28;20645;-72
2021/12/10 19:25:53;;;;;;;2.47;2.28;;;;;;;;;;5002399;28;20030;-73
2021/12/10 19:28:22;;;;;;;2.45;2.33;;;;;;;;;;5005655;28;20049;-72
2021/12/10 19:30:54;;;;;;;2.47;2.28;;;;;;;;;;5008181;28;20057;-73
2021/12/10 19:33:23;;;;;;;2.60;2.40;;;;;;;;;;5009335;28;20038;-73
2021/12/10 19:35:51;;;;;;;2.00;1.90;;;;;;;;;;5011435;28;20393;-73
2021/12/10 19:38:23;;;;;;;1.83;1.73;;;;;;;;;;5011561;28;20038;-72
2021/12/10 19:40:54;;;;;;;2.83;2.63;;;;;;;;;;5006231;28;20120;-73
2021/12/10 19:43:32;;;;;;;1.60;1.50;;;;;;;;;;5007318;28;20109;-73
2021/12/10 19:46:02;;;;;;;1.95;1.85;;;;;;;;;;5006110;28;20088;-72
2021/12/10 19:48:39;;;;;;;1.88;1.77;;;;;;;;;;5003858;28;20045;-73
2021/12/10 19:51:10;;;;;;;1.77;1.60;;;;;;;;;;5004549;28;20037;-73
2021/12/10 19:53:45;;;;;;;1.85;1.45;;;;;;;;;;5004942;28;20033;-73
2021/12/10 19:56:21;;;;;;;1.50;1.40;;;;;;;;;;5010462;28;20217;-74
2021/12/10 19:59:09;;;;;;;1.85;1.75;;;;;;;;;;5009725;28;20785;-74
2021/12/10 20:02:08;;;;;;;1.30;1.30;;;;;;;;;;5020699;28;20030;-74
2021/12/10 20:04:37;;;;;;;3.33;1.60;;;;;;;;;;5010647;28;20073;-74
2021/12/10 20:07:03;;;;;;;1.70;1.42;;;;;;;;;;5008697;28;20038;-75
2021/12/10 20:09:42;;;;;;;1.70;1.60;;;;;;;;;;5008135;28;20033;-75
2021/12/10 20:12:17;;;;;;;1.67;1.50;;;;;;;;;;5008699;28;20049;-75
2021/12/10 20:14:58;;;;;;;1.70;1.60;;;;;;;;;;5010564;28;20026;-74
2021/12/10 20:17:30;;;;;;;1.80;1.70;;;;;;;;;;5008010;28;20036;-74
2021/12/10 20:20:03;;;;;;;1.83;1.67;;;;;;;;;;5007515;28;20465;-74
2021/12/10 20:22:37;;;;;;;2.10;1.88;;;;;;;;;;5009763;28;20070;-74
2021/12/10 20:25:21;;;;;;;2.00;1.90;;;;;;;;;;5009828;28;20050;-74
2021/12/10 20:28:00;;;;;;;1.85;1.75;;;;;;;;;;5007790;28;20041;-73
2021/12/10 20:30:29;;;;;;;1.83;1.73;;;;;;;;;;5022902;28;20381;-73
2021/12/10 20:32:57;;;;;;;2.08;1.95;;;;;;;;;;5007634;28;20492;-73
2021/12/10 20:35:30;;;;;;;4.47;2.10;;;;;;;;;;5005622;28;21689;-73
2021/12/10 20:38:01;;;;;;;1.95;1.85;;;;;;;;;;5006538;28;20457;-73
2021/12/10 20:40:37;;;;;;;2.53;1.98;;;;;;;;;;5010121;28;20084;-73
2021/12/10 20:43:09;;;;;;;2.10;1.90;;;;;;;;;;5009142;28;20072;-73
2021/12/10 20:45:37;;;;;;;2.00;1.90;;;;;;;;;;5006535;28;20030;-73
2021/12/10 20:48:08;;;;;;;1.73;1.63;;;;;;;;;;5006401;28;20032;-72
2021/12/10 20:50:42;;;;;;;2.10;2.00;;;;;;;;;;5007372;28;20034;-73
2021/12/10 20:53:12;;;;;;;2.03;1.75;;;;;;;;;;5007679;28;20026;-72
2021/12/10 20:55:59;;;;;;;2.05;1.85;;;;;;;;;;5006392;28;20397;-74
2021/12/10 20:58:32;;;;;;;2.65;1.58;;;;;;;;;;5010684;28;20034;-73
2021/12/10 21:01:04;;;;;;;1.75;1.65;;;;;;;;;;5016000;28;20029;-74
2021/12/10 21:03:39;;;;;;;2.05;1.90;;;;;;;;;;5031524;28;20030;-74
2021/12/10 21:06:10;;;;;;;2.00;1.90;;;;;;;;;;5031882;28;20427;-74
2021/12/10 21:08:45;;;;;;;1.80;1.70;;;;;;;;;;5014497;28;20029;-75
2021/12/10 21:11:13;;;;;;;1.85;1.75;;;;;;;;;;5030649;28;20025;-75
2021/12/10 21:13:39;;;;;;;2.00;1.90;;;;;;;;;;5031519;28;20045;-75
2021/12/10 21:16:07;;;;;;;2.30;1.85;;;;;;;;;;5031433;28;20067;-73
2021/12/10 21:18:38;;;;;;;1.98;1.80;;;;;;;;;;5031583;28;20067;-74
2021/12/10 21:21:08;;;;;;;2.10;2.00;;;;;;;;;;5031668;28;20130;-75
2021/12/10 21:23:45;;;;;;;3.22;1.90;;;;;;;;;;5046835;28;20036;-75
2021/12/10 21:26:32;;;;;;;2.28;1.75;;;;;;;;;;5031496;28;20384;-76
2021/12/10 21:29:01;;;;;;;1.98;1.80;;;;;;;;;;5031346;28;20488;-74
2021/12/10 21:31:52;;;;;;;3.60;1.65;;;;;;;;;;5029632;28;20438;-75
2021/12/10 21:34:21;;;;;;;4.60;2.28;;;;;;;;;;5031499;28;20393;-76
2021/12/10 21:39:23;;;;;;;4.57;2.00;;;;;;;;;;5031772;28;20025;-76
2021/12/10 21:41:48;;;;;;;2.60;2.10;;;;;;;;;;5031423;28;20062;-73
2021/12/10 21:44:16;;;;;;;2.47;2.38;;;;;;;;;;5031408;28;20048;-74
2021/12/10 21:46:48;;;;;;;2.97;2.60;;;;;;;;;;5031251;28;20103;-74
2021/12/10 21:49:14;;;;;;;3.38;2.53;;;;;;;;;;5031633;28;20040;-74
2021/12/10 21:51:42;;;;;;;3.45;2.50;;;;;;;;;;5030277;28;20044;-74
2021/12/10 21:54:10;;;;;;;3.08;2.40;;;;;;;;;;5031283;28;20071;-74
2021/12/10 21:56:35;;;;;;;3.38;1.90;;;;;;;;;;5030184;28;20562;-76
2021/12/10 21:59:08;;;;;;;2.33;1.95;;;;;;;;;;5029510;28;20120;-73
2021/12/10 22:01:44;;;;;;;3.22;1.70;;;;;;;;;;5043887;28;20253;-74
2021/12/10 22:04:12;;;;;;;4.53;1.83;;;;;;;;;;5033938;28;20025;-74
2021/12/10 22:06:40;;;;;;;2.13;1.95;;;;;;;;;;5035020;28;20320;-75
2021/12/10 22:09:35;;;;;;;2.65;2.00;;;;;;;;;;5033422;28;20029;-74
2021/12/10 22:12:13;;;;;;;2.58;1.85;;;;;;;;;;5029777;28;20433;-74
2021/12/10 22:14:42;;;;;;;4.40;1.70;;;;;;;;;;5050216;28;20036;-75
2021/12/10 22:17:15;;;;;;;4.45;2.60;;;;;;;;;;5034619;28;20022;-75
2021/12/10 22:19:44;;;;;;;6.68;2.38;;;;;;;;;;5034757;28;20034;-75
2021/12/10 22:22:15;;;;;;;4.25;1.92;;;;;;;;;;5033432;28;20179;-75
2021/12/10 22:24:43;;;;;;;3.10;1.60;;;;;;;;;;5034649;28;20032;-76
2021/12/10 22:27:15;;;;;;;2.72;2.13;;;;;;;;;;5033592;28;20029;-76
2021/12/10 22:29:43;;;;;;;2.10;1.70;;;;;;;;;;5034476;28;20032;-75
2021/12/10 22:32:12;;;;;;;3.85;2.30;;;;;;;;;;5033661;28;20385;-75
2021/12/10 22:34:55;;;;;;;7.05;1.85;;;;;;;;;;5033161;28;20025;-76
2021/12/10 22:37:20;;;;;;;3.33;1.92;;;;;;;;;;5034541;28;20021;-75
2021/12/10 22:39:53;;;;;;;3.80;2.17;;;;;;;;;;5034352;28;20033;-75
2021/12/10 22:42:26;;;;;;;4.18;2.30;;;;;;;;;;5033164;28;20036;-73
2021/12/10 22:44:55;;;;;;;2.20;1.95;;;;;;;;;;5033080;28;20053;-75
2021/12/10 22:47:24;;;;;;;3.05;2.13;;;;;;;;;;5034290;28;20420;-73
2021/12/10 22:49:54;;;;;;;2.80;1.95;;;;;;;;;;5034415;28;20033;-75
2021/12/10 22:52:25;;;;;;;5.88;2.05;;;;;;;;;;5034496;28;20025;-75
2021/12/10 22:54:53;;;;;;;4.78;2.05;;;;;;;;;;5034116;28;20541;-75
2021/12/10 22:57:24;;;;;;;2.63;2.00;;;;;;;;;;5034072;28;20026;-75
2021/12/10 22:59:54;;;;;;;3.85;1.92;;;;;;;;;;5033913;28;20029;-74
2021/12/10 23:02:25;;;;;;;4.55;1.83;;;;;;;;;;5031735;28;20056;-75
2021/12/10 23:05:19;;;;;;;2.47;1.90;;;;;;;;;;5034206;28;20033;-75
2021/12/10 23:07:49;;;;;;;2.08;1.70;;;;;;;;;;5032655;28;20407;-74
2021/12/10 23:10:23;;;;;;;1.60;1.50;;;;;;;;;;5033887;28;20399;-75
2021/12/10 23:13:10;;;;;;;;;;;;;;;;;;5034479;28;20388;-74
2021/12/10 23:15:41;;;;;;;4.78;1.70;;;;;;;;;;5033608;28;19992;-75
2021/12/10 23:18:13;;;;;;;3.58;1.50;;;;;;;;;;5033674;28;20514;-74
2021/12/10 23:20:39;;;;;;;1.65;1.50;;;;;;;;;;5032298;28;20045;-72
2021/12/10 23:23:04;;;;;;;2.75;1.77;;;;;;;;;;5033873;28;20030;-73
2021/12/10 23:25:41;;;;;;;1.70;1.40;;;;;;;;;;5033290;28;20033;-73
2021/12/10 23:28:09;;;;;;;3.95;1.98;;;;;;;;;;5032665;28;20037;-75
2021/12/10 23:30:50;;;;;;;1.75;1.60;;;;;;;;;;5032578;28;20032;-75
2021/12/10 23:33:22;;;;;;;2.63;1.70;;;;;;;;;;5032254;28;20036;-74
2021/12/10 23:35:50;;;;;;;1.60;1.50;;;;;;;;;;5031965;28;20030;-75
2021/12/10 23:38:24;;;;;;;2.05;1.77;;;;;;;;;;5033324;28;20108;-74
2021/12/10 23:40:55;;;;;;;;;;;;;;;;;;5033738;28;20029;-73
2021/12/10 23:43:27;;;;;;;1.60;1.40;;;;;;;;;;5031893;28;19934;-76
2021/12/10 23:45:55;;;;;;;1.92;1.60;;;;;;;;;;5031926;28;20078;-75
2021/12/10 23:48:30;;;;;;;1.50;1.40;;;;;;;;;;5033097;28;20037;-74
2021/12/10 23:50:56;;;;;;;2.78;1.63;;;;;;;;;;5032905;28;20079;-75
2021/12/10 23:53:33;;;;;;;2.85;1.95;;;;;;;;;;5031731;28;20068;-76
2021/12/10 23:55:59;;;;;;;2.25;1.60;;;;;;;;;;5031868;28;20384;-75
2021/12/10 23:58:30;;;;;;;1.60;1.50;;;;;;;;;;5015314;28;20495;-75
